createdAt,value
2022-12-20T00:01:33.231Z,5.15
2022-12-20T00:06:30.201Z,4.70
2022-12-20T00:08:59.917Z,3.90
2022-12-20T00:11:28.420Z,4.20
2022-12-20T00:13:55.755Z,4.30
2022-12-20T00:16:25.783Z,4.43
2022-12-20T00:18:55.029Z,5.68
2022-12-20T00:21:22.205Z,4.53
2022-12-20T00:23:49.639Z,4.68
2022-12-20T00:26:19.926Z,4.80
2022-12-20T00:28:48.001Z,3.95
2022-12-20T00:31:19.169Z,4.20
2022-12-20T00:33:48.630Z,5.05
2022-12-20T00:36:16.776Z,4.93
2022-12-20T00:38:51.505Z,4.47
2022-12-20T00:41:24.575Z,5.35
2022-12-20T00:43:52.663Z,4.05
2022-12-20T00:46:23.550Z,4.68
2022-12-20T00:48:51.339Z,5.18
2022-12-20T00:51:23.919Z,4.97
2022-12-20T00:53:51.121Z,5.05
2022-12-20T00:56:18.463Z,4.90
2022-12-20T00:58:46.281Z,4.75
2022-12-20T01:01:25.455Z,5.03
2022-12-20T01:03:54.307Z,4.40
2022-12-20T01:06:22.626Z,4.35
2022-12-20T01:08:50.074Z,3.45
2022-12-20T01:11:23.363Z,3.65
2022-12-20T01:13:54.276Z,4.25
2022-12-20T01:16:25.186Z,4.10
2022-12-20T01:18:53.283Z,4.65
2022-12-20T01:21:23.497Z,4.53
2022-12-20T01:23:50.710Z,3.80
2022-12-20T01:26:20.298Z,4.00
2022-12-20T01:28:48.746Z,4.57
2022-12-20T01:31:18.386Z,4.22
2022-12-20T01:33:47.981Z,4.07
2022-12-20T01:36:20.476Z,4.50
2022-12-20T01:38:47.912Z,3.83
2022-12-20T01:41:20.099Z,4.70
2022-12-20T01:43:59.942Z,4.18
2022-12-20T01:46:29.514Z,4.30
2022-12-20T01:49:07.410Z,4.40
2022-12-20T01:51:38.288Z,4.80
2022-12-20T01:54:13.009Z,4.75
2022-12-20T01:56:42.681Z,4.57
2022-12-20T01:59:11.030Z,4.82
2022-12-20T02:01:38.623Z,5.05
2022-12-20T02:04:05.779Z,4.85
2022-12-20T02:06:33.031Z,4.50
2022-12-20T02:09:02.398Z,4.30
2022-12-20T02:11:40.945Z,5.10
2022-12-20T02:14:44.444Z,4.53
2022-12-20T02:20:12.553Z,4.70
2022-12-20T02:22:56.150Z,5.00
2022-12-20T02:25:38.730Z,4.57
2022-12-20T02:28:28.984Z,5.35
2022-12-20T02:30:58.133Z,5.45
2022-12-20T02:33:28.342Z,5.80
2022-12-20T02:35:55.521Z,5.50
2022-12-20T02:38:34.709Z,5.43
2022-12-20T02:41:18.591Z,5.85
2022-12-20T02:44:08.319Z,5.90
2022-12-20T02:46:36.571Z,5.43
2022-12-20T02:49:09.565Z,6.28
2022-12-20T02:51:37.370Z,5.68
2022-12-20T02:54:05.318Z,6.10
2022-12-20T02:56:47.443Z,6.68
2022-12-20T02:59:20.414Z,6.10
2022-12-20T03:01:57.951Z,6.90
2022-12-20T03:04:31.125Z,6.25
2022-12-20T03:07:01.355Z,6.80
2022-12-20T03:09:33.536Z,6.03
2022-12-20T03:12:01.422Z,5.95
2022-12-20T03:14:28.545Z,7.35
2022-12-20T03:16:56.159Z,7.20
2022-12-20T03:19:23.281Z,7.18
2022-12-20T03:21:50.654Z,6.30
2022-12-20T03:24:18.264Z,7.50
2022-12-20T03:26:45.434Z,7.00
2022-12-20T03:29:12.783Z,8.32
2022-12-20T03:31:40.246Z,7.87
2022-12-20T03:34:07.705Z,7.70
2022-12-20T03:36:35.019Z,7.72
2022-12-20T03:39:02.233Z,7.30
2022-12-20T03:41:29.414Z,8.38
2022-12-20T03:43:56.586Z,8.45
2022-12-20T03:46:24.086Z,6.50
2022-12-20T03:48:51.240Z,7.95
2022-12-20T03:51:19.705Z,8.57
2022-12-20T03:53:46.772Z,7.97
2022-12-20T03:56:14.156Z,7.78
2022-12-20T03:58:41.359Z,8.85
2022-12-20T04:01:26.809Z,8.43
2022-12-20T04:03:55.573Z,9.40
2022-12-20T04:06:23.635Z,10.60
2022-12-20T04:08:51.065Z,10.07
2022-12-20T04:11:18.403Z,10.68
2022-12-20T04:13:50.295Z,9.20
2022-12-20T04:16:20.913Z,10.77
2022-12-20T04:18:48.513Z,11.23
2022-12-20T04:21:16.567Z,12.20
2022-12-20T04:23:44.430Z,8.60
2022-12-20T04:26:13.466Z,11.52
2022-12-20T04:28:40.669Z,10.93
2022-12-20T04:31:07.778Z,11.03
2022-12-20T04:33:35.370Z,11.27
2022-12-20T04:36:03.741Z,11.50
2022-12-20T04:38:31.054Z,10.53
2022-12-20T04:40:58.503Z,11.43
2022-12-20T04:43:26.208Z,11.87
2022-12-20T04:45:56.667Z,9.13
2022-12-20T04:51:17.035Z,9.40
2022-12-20T04:53:48.188Z,9.97
2022-12-20T04:56:21.613Z,10.43
2022-12-20T04:58:51.679Z,10.87
2022-12-20T05:01:19.639Z,9.27
2022-12-20T05:03:47.546Z,9.37
2022-12-20T05:06:14.954Z,9.97
2022-12-20T05:08:42.707Z,9.90
2022-12-20T05:11:10.386Z,8.63
2022-12-20T05:13:37.642Z,8.87
2022-12-20T05:16:05.305Z,9.13
2022-12-20T05:18:32.893Z,8.97
2022-12-20T05:21:20.367Z,8.37
2022-12-20T05:24:06.148Z,8.07
2022-12-20T05:26:36.705Z,7.93
2022-12-20T05:29:04.842Z,6.60
2022-12-20T05:31:32.308Z,7.20
2022-12-20T05:34:00.466Z,8.80
2022-12-20T05:36:27.667Z,8.63
2022-12-20T05:39:00.110Z,7.43
2022-12-20T05:41:30.967Z,6.43
2022-12-20T05:43:58.332Z,6.60
2022-12-20T05:46:25.595Z,6.33
2022-12-20T05:48:52.779Z,5.03
2022-12-20T05:51:19.978Z,7.13
2022-12-20T05:53:47.101Z,6.80
2022-12-20T05:56:14.255Z,7.13
2022-12-20T05:58:41.463Z,5.90
2022-12-20T06:01:10.528Z,5.03
2022-12-20T06:03:41.144Z,4.43
2022-12-20T06:06:13.896Z,6.97
2022-12-20T06:08:42.160Z,4.07
2022-12-20T06:11:09.294Z,5.03
2022-12-20T06:13:36.511Z,7.37
2022-12-20T06:16:03.806Z,5.73
2022-12-20T06:18:30.984Z,4.67
2022-12-20T06:20:58.052Z,7.10
2022-12-20T06:23:25.499Z,5.13
2022-12-20T06:25:53.465Z,5.70
2022-12-20T06:28:22.330Z,6.63
2022-12-20T06:30:57.086Z,4.23
2022-12-20T06:33:25.280Z,4.80
2022-12-20T06:35:52.593Z,4.30
2022-12-20T06:38:19.911Z,5.33
2022-12-20T06:40:47.080Z,5.80
2022-12-20T06:43:14.233Z,6.40
2022-12-20T06:45:42.648Z,4.43
2022-12-20T06:48:10.867Z,5.73
2022-12-20T06:50:39.722Z,5.23
2022-12-20T06:53:07.092Z,3.80
2022-12-20T06:55:34.179Z,3.13
2022-12-20T06:58:01.618Z,5.30
2022-12-20T07:00:28.914Z,4.73
2022-12-20T07:02:56.209Z,3.80
2022-12-20T07:05:23.689Z,4.40
2022-12-20T07:07:51.344Z,5.07
2022-12-20T07:10:18.587Z,3.83
2022-12-20T07:12:48.408Z,3.80
2022-12-20T07:15:16.258Z,4.93
2022-12-20T07:17:43.752Z,5.90
2022-12-20T07:20:14.193Z,4.60
2022-12-20T07:22:41.736Z,3.63
2022-12-20T07:25:09.654Z,4.70
2022-12-20T07:27:36.865Z,4.77
2022-12-20T07:30:05.343Z,6.00
2022-12-20T07:32:32.790Z,3.40
2022-12-20T07:35:00.023Z,4.57
2022-12-20T07:37:29.712Z,3.67
2022-12-20T07:39:56.933Z,3.03
2022-12-20T07:42:27.719Z,3.83
2022-12-20T07:45:00.997Z,4.03
2022-12-20T07:47:29.353Z,3.50
2022-12-20T07:49:56.521Z,3.37
2022-12-20T07:52:27.359Z,3.83
2022-12-20T07:55:01.836Z,4.50
2022-12-20T07:57:43.804Z,3.83
2022-12-20T08:00:12.091Z,3.93
2022-12-20T08:03:01.209Z,2.57
2022-12-20T08:05:29.644Z,3.17
2022-12-20T08:08:00.050Z,3.43
2022-12-20T08:10:28.995Z,3.63
2022-12-20T08:12:56.616Z,3.63
2022-12-20T08:15:24.387Z,2.63
2022-12-20T08:17:51.704Z,2.47
2022-12-20T08:20:18.868Z,2.40
2022-12-20T08:22:46.016Z,4.00
2022-12-20T08:25:13.192Z,2.83
2022-12-20T08:27:40.342Z,2.43
2022-12-20T08:30:08.968Z,3.30
2022-12-20T08:32:36.531Z,2.50
2022-12-20T08:35:05.219Z,2.47
2022-12-20T08:37:33.066Z,3.00
2022-12-20T08:40:01.101Z,2.83
2022-12-20T08:42:30.341Z,2.80
2022-12-20T08:44:57.455Z,3.37
2022-12-20T08:47:24.585Z,3.27
2022-12-20T08:49:51.826Z,4.43
2022-12-20T08:52:18.930Z,3.33
2022-12-20T08:54:46.360Z,4.20
2022-12-20T08:57:13.896Z,3.37
2022-12-20T08:59:41.023Z,2.67
2022-12-20T09:02:09.182Z,4.40
2022-12-20T09:04:36.578Z,2.73
2022-12-20T09:07:04.101Z,4.10
2022-12-20T09:09:31.754Z,4.00
2022-12-20T09:11:58.893Z,3.80
2022-12-20T09:14:26.021Z,4.40
2022-12-20T09:16:53.270Z,2.63
2022-12-20T09:19:20.290Z,2.30
2022-12-20T09:21:47.451Z,2.77
2022-12-20T09:24:14.650Z,3.33
2022-12-20T09:26:41.737Z,2.70
2022-12-20T09:29:08.878Z,3.80
2022-12-20T09:31:37.181Z,3.60
2022-12-20T09:34:04.354Z,3.60
2022-12-20T09:36:31.606Z,4.15
2022-12-20T09:38:59.039Z,3.08
2022-12-20T09:41:33.863Z,3.80
2022-12-20T09:44:07.951Z,4.20
2022-12-20T09:46:35.195Z,4.22
2022-12-20T09:49:03.080Z,3.13
2022-12-20T09:51:45.329Z,3.95
2022-12-20T09:54:50.063Z,3.05
2022-12-20T09:58:01.327Z,2.67
2022-12-20T10:00:30.392Z,3.70
2022-12-20T10:03:06.461Z,3.15
2022-12-20T10:05:55.069Z,3.47
2022-12-20T10:08:41.918Z,3.15
2022-12-20T10:11:15.209Z,3.30
2022-12-20T10:14:09.268Z,3.63
2022-12-20T10:16:47.886Z,4.18
2022-12-20T10:19:29.924Z,3.50
2022-12-20T10:22:27.760Z,4.15
2022-12-20T10:25:19.850Z,2.92
2022-12-20T10:27:49.379Z,3.08
2022-12-20T10:30:22.971Z,2.50
2022-12-20T10:32:54.086Z,3.08
2022-12-20T10:35:39.186Z,4.00
2022-12-20T10:38:14.304Z,4.40
2022-12-20T10:41:21.284Z,4.10
2022-12-20T10:44:00.171Z,3.75
2022-12-20T10:46:47.410Z,4.10
2022-12-20T10:49:34.299Z,3.92
2022-12-20T10:52:19.424Z,4.18
2022-12-20T10:54:47.941Z,4.45
2022-12-20T10:57:31.848Z,4.35
2022-12-20T11:00:02.565Z,3.95
2022-12-20T11:02:41.883Z,4.60
2022-12-20T11:05:12.127Z,4.90
2022-12-20T11:10:45.316Z,4.28
2022-12-20T11:13:24.321Z,4.47
2022-12-20T11:15:57.474Z,4.15
2022-12-20T11:18:49.102Z,4.03
2022-12-20T11:21:25.942Z,4.30
2022-12-20T11:24:14.666Z,3.65
2022-12-20T11:26:52.645Z,3.90
2022-12-20T11:29:38.237Z,3.97
2022-12-20T11:32:08.421Z,3.50
2022-12-20T11:34:43.252Z,4.60
2022-12-20T11:37:21.117Z,3.40
2022-12-20T11:40:27.262Z,4.03
2022-12-20T11:44:01.122Z,3.65
2022-12-20T11:46:52.064Z,2.90
2022-12-20T11:49:34.154Z,3.63
2022-12-20T11:52:13.812Z,4.20
2022-12-20T11:54:49.086Z,4.80
2022-12-20T11:57:28.543Z,4.18
2022-12-20T12:00:02.704Z,4.38
2022-12-20T12:02:51.645Z,3.90
2022-12-20T12:05:29.157Z,3.40
2022-12-20T12:08:04.064Z,3.97
2022-12-20T12:10:36.876Z,4.35
2022-12-20T12:13:19.021Z,4.03
2022-12-20T12:16:15.960Z,4.28
2022-12-20T12:18:43.343Z,4.30
2022-12-20T12:21:27.733Z,4.37
2022-12-20T12:24:04.355Z,4.17
2022-12-20T12:26:37.636Z,4.40
2022-12-20T12:29:08.631Z,4.10
2022-12-20T12:32:08.811Z,4.63
2022-12-20T12:35:06.904Z,5.00
2022-12-20T12:37:52.497Z,4.53
2022-12-20T12:40:19.568Z,4.43
2022-12-20T12:43:17.268Z,5.03
2022-12-20T12:45:48.574Z,4.40
2022-12-20T12:48:39.250Z,5.23
2022-12-20T12:51:07.393Z,4.50
2022-12-20T12:53:55.457Z,5.70
2022-12-20T12:56:45.929Z,4.40
2022-12-20T12:59:13.698Z,5.17
2022-12-20T13:01:46.908Z,4.60
2022-12-20T13:04:23.832Z,4.90
2022-12-20T13:06:51.113Z,4.70
2022-12-20T13:09:26.245Z,5.10
2022-12-20T13:12:02.129Z,4.47
2022-12-20T13:14:30.653Z,4.17
2022-12-20T13:17:13.094Z,5.03
2022-12-20T13:19:51.663Z,4.67
2022-12-20T13:22:25.479Z,4.77
2022-12-20T13:25:03.144Z,4.63
2022-12-20T13:27:39.300Z,4.97
2022-12-20T13:30:12.330Z,4.50
2022-12-20T13:32:48.862Z,5.43
2022-12-20T13:35:24.996Z,5.40
2022-12-20T13:38:07.413Z,4.93
2022-12-20T13:40:43.727Z,4.43
2022-12-20T13:43:41.692Z,5.03
2022-12-20T13:46:12.154Z,4.57
2022-12-20T13:48:48.899Z,5.40
2022-12-20T13:51:21.549Z,6.00
2022-12-20T13:56:29.231Z,5.50
2022-12-20T13:58:59.483Z,6.00
2022-12-20T14:01:27.177Z,5.47
2022-12-20T14:03:54.733Z,5.50
2022-12-20T14:06:26.902Z,6.03
2022-12-20T14:08:54.853Z,5.20
2022-12-20T14:11:28.281Z,5.97
2022-12-20T14:14:01.411Z,5.53
2022-12-20T14:16:31.656Z,5.10
2022-12-20T14:19:12.620Z,4.90
2022-12-20T14:21:46.594Z,5.40
2022-12-20T14:24:25.123Z,5.17
2022-12-20T14:26:54.000Z,5.33
2022-12-20T14:29:29.154Z,4.60
2022-12-20T14:31:57.361Z,5.27
2022-12-20T14:34:34.040Z,5.00
2022-12-20T14:37:31.279Z,5.77
2022-12-20T14:40:19.477Z,4.50
2022-12-20T14:42:47.323Z,4.97
2022-12-20T14:45:14.549Z,5.53
2022-12-20T14:48:07.831Z,5.10
2022-12-20T14:50:37.043Z,5.30
2022-12-20T14:53:04.870Z,5.20
2022-12-20T14:55:45.106Z,5.20
2022-12-20T14:58:30.267Z,4.97
2022-12-20T15:01:15.914Z,4.83
2022-12-20T15:03:57.960Z,5.27
2022-12-20T15:06:54.760Z,5.20
2022-12-20T15:09:22.165Z,5.80
2022-12-20T15:11:51.751Z,5.23
2022-12-20T15:14:37.436Z,5.37
2022-12-20T15:17:13.383Z,5.80
2022-12-20T15:19:42.735Z,6.10
2022-12-20T15:22:20.563Z,5.40
2022-12-20T15:24:51.806Z,5.63
2022-12-20T15:27:18.920Z,5.53
2022-12-20T15:29:45.936Z,5.80
2022-12-20T15:32:29.926Z,5.77
2022-12-20T15:34:57.295Z,5.50
2022-12-20T15:37:24.355Z,5.90
2022-12-20T15:39:51.513Z,5.97
2022-12-20T15:42:20.420Z,6.17
2022-12-20T15:44:47.967Z,6.13
2022-12-20T15:47:17.151Z,5.87
2022-12-20T15:49:49.781Z,6.00
2022-12-20T15:52:23.535Z,5.67
2022-12-20T15:54:51.049Z,6.00
2022-12-20T15:57:18.293Z,6.40
2022-12-20T15:59:59.883Z,5.63
2022-12-20T16:02:31.150Z,8.25
2022-12-20T16:04:59.335Z,6.23
2022-12-20T16:07:26.871Z,6.17
2022-12-20T16:09:54.386Z,9.10
2022-12-20T16:12:33.257Z,7.33
2022-12-20T16:15:00.435Z,7.70
2022-12-20T16:17:27.857Z,7.87
2022-12-20T16:19:55.746Z,6.70
2022-12-20T16:22:24.213Z,6.70
2022-12-20T16:24:52.011Z,6.50
2022-12-20T16:27:19.597Z,6.47
2022-12-20T16:29:46.742Z,8.10
2022-12-20T16:32:18.920Z,5.90
2022-12-20T16:34:46.939Z,6.45
2022-12-20T16:37:14.282Z,7.43
2022-12-20T16:39:42.432Z,5.57
2022-12-20T16:42:18.263Z,6.70
2022-12-20T16:44:46.258Z,6.70
2022-12-20T16:47:14.910Z,6.53
2022-12-20T16:49:49.679Z,6.53
2022-12-20T16:52:20.296Z,6.30
2022-12-20T16:54:47.700Z,6.63
2022-12-20T16:57:14.865Z,6.03
2022-12-20T16:59:41.986Z,6.13
2022-12-20T17:02:38.432Z,6.37
2022-12-20T17:05:06.025Z,6.50
2022-12-20T17:07:37.990Z,7.20
2022-12-20T17:10:12.700Z,6.70
2022-12-20T17:12:39.990Z,6.23
2022-12-20T17:15:11.117Z,6.30
2022-12-20T17:17:38.563Z,5.93
2022-12-20T17:20:06.243Z,6.50
2022-12-20T17:25:33.580Z,6.03
2022-12-20T17:30:27.913Z,5.93
2022-12-20T17:32:55.145Z,6.10
2022-12-20T17:35:26.093Z,6.30
2022-12-20T17:37:55.829Z,6.47
2022-12-20T17:40:25.291Z,5.77
2022-12-20T17:42:52.727Z,6.60
2022-12-20T17:45:29.783Z,6.03
2022-12-20T17:47:57.996Z,6.07
2022-12-20T17:50:26.664Z,6.53
2022-12-20T17:52:54.845Z,14.93
2022-12-20T17:55:28.370Z,6.00
2022-12-20T17:57:55.904Z,7.30
2022-12-20T18:00:38.580Z,6.13
2022-12-20T18:03:07.342Z,6.90
2022-12-20T18:05:34.977Z,5.77
2022-12-20T18:08:02.101Z,6.17
2022-12-20T18:10:29.217Z,6.23
2022-12-20T18:12:56.350Z,6.13
2022-12-20T18:15:24.123Z,6.70
2022-12-20T18:17:51.433Z,6.60
2022-12-20T18:20:18.703Z,6.97
2022-12-20T18:22:45.929Z,6.43
2022-12-20T18:25:14.112Z,6.57
2022-12-20T18:27:43.270Z,6.57
2022-12-20T18:30:12.454Z,6.73
2022-12-20T18:32:41.002Z,6.80
2022-12-20T18:35:09.717Z,8.00
2022-12-20T18:37:37.165Z,7.53
2022-12-20T18:40:04.941Z,6.30
2022-12-20T18:42:32.104Z,7.77
2022-12-20T18:44:59.228Z,7.67
2022-12-20T18:47:26.613Z,7.77
2022-12-20T18:49:53.922Z,8.23
2022-12-20T18:52:21.086Z,8.17
2022-12-20T18:54:48.185Z,8.53
2022-12-20T18:57:15.284Z,9.07
2022-12-20T18:59:42.491Z,8.80
2022-12-20T19:02:14.669Z,9.70
2022-12-20T19:04:41.928Z,9.35
2022-12-20T19:07:09.376Z,8.67
2022-12-20T19:09:36.653Z,8.77
2022-12-20T19:12:04.399Z,9.07
2022-12-20T19:14:31.539Z,8.27
2022-12-20T19:16:59.237Z,8.13
2022-12-20T19:19:26.856Z,9.30
2022-12-20T19:21:53.934Z,8.97
2022-12-20T19:24:21.474Z,9.47
2022-12-20T19:26:49.083Z,8.97
2022-12-20T19:29:16.433Z,8.73
2022-12-20T19:31:43.583Z,8.83
2022-12-20T19:34:13.036Z,8.93
2022-12-20T19:36:45.543Z,9.90
2022-12-20T19:39:18.129Z,9.35
2022-12-20T19:44:27.333Z,9.33
2022-12-20T19:46:54.601Z,9.10
2022-12-20T19:49:21.894Z,9.37
2022-12-20T19:51:49.714Z,9.60
2022-12-20T19:54:16.875Z,9.17
2022-12-20T19:56:44.275Z,9.60
2022-12-20T19:59:13.254Z,8.77
2022-12-20T20:01:40.379Z,9.23
2022-12-20T20:04:10.165Z,9.13
2022-12-20T20:06:37.418Z,8.90
2022-12-20T20:09:04.696Z,9.20
2022-12-20T20:11:31.782Z,9.70
2022-12-20T20:14:00.540Z,15.37
2022-12-20T20:16:27.993Z,9.27
2022-12-20T20:18:55.544Z,10.50
2022-12-20T20:21:23.724Z,9.30
2022-12-20T20:23:52.829Z,9.43
2022-12-20T20:26:26.153Z,9.37
2022-12-20T20:28:53.669Z,9.23
2022-12-20T20:31:21.807Z,9.37
2022-12-20T20:33:49.623Z,9.70
2022-12-20T20:36:22.568Z,9.97
2022-12-20T20:38:51.809Z,9.23
2022-12-20T20:41:19.087Z,10.23
2022-12-20T20:43:46.257Z,10.03
2022-12-20T20:46:15.499Z,9.33
2022-12-20T20:48:43.061Z,10.67
2022-12-20T20:51:10.631Z,10.37
2022-12-20T20:53:38.337Z,10.32
2022-12-20T20:56:06.966Z,10.18
2022-12-20T20:58:35.351Z,9.05
2022-12-20T21:01:04.761Z,10.17
2022-12-20T21:03:32.835Z,10.53
2022-12-20T21:06:34.923Z,9.30
2022-12-20T21:08:48.298Z,14.80
2022-12-20T21:11:15.800Z,9.93
2022-12-20T21:13:43.050Z,10.60
2022-12-20T21:16:20.808Z,12.00
2022-12-20T21:19:09.428Z,11.70
2022-12-20T21:21:36.941Z,11.07
2022-12-20T21:24:04.168Z,11.95
2022-12-20T21:26:31.717Z,11.85
2022-12-20T21:29:01.182Z,11.40
2022-12-20T21:31:28.970Z,11.10
2022-12-20T21:33:57.035Z,12.93
2022-12-20T21:36:24.737Z,11.97
2022-12-20T21:38:58.473Z,12.07
2022-12-20T21:41:27.875Z,12.40
2022-12-20T21:43:57.024Z,10.50
2022-12-20T21:46:24.322Z,10.10
2022-12-20T21:48:51.548Z,10.13
2022-12-20T21:51:21.921Z,10.37
2022-12-20T21:53:54.659Z,9.60
2022-12-20T21:58:50.874Z,8.53
2022-12-20T22:01:20.838Z,8.70
2022-12-20T22:03:52.383Z,8.93
2022-12-20T22:06:20.394Z,9.50
2022-12-20T22:08:47.538Z,9.50
2022-12-20T22:11:17.382Z,8.87
2022-12-20T22:13:44.837Z,9.73
2022-12-20T22:16:14.539Z,9.50
2022-12-20T22:18:43.594Z,9.47
2022-12-20T22:21:13.291Z,9.13
2022-12-20T22:23:41.119Z,9.57
2022-12-20T22:26:11.165Z,10.97
2022-12-20T22:28:39.975Z,9.37
2022-12-20T22:31:09.416Z,9.57
2022-12-20T22:33:37.588Z,10.03
2022-12-20T22:36:05.834Z,15.03
2022-12-20T22:38:33.144Z,9.33
2022-12-20T22:41:07.338Z,9.48
2022-12-20T22:43:34.606Z,8.63
2022-12-20T22:46:01.942Z,8.97
2022-12-20T22:48:29.163Z,10.20
2022-12-20T22:51:01.514Z,8.53
2022-12-20T22:53:28.963Z,14.65
2022-12-20T22:55:56.163Z,9.77
2022-12-20T22:58:23.347Z,11.40
2022-12-20T23:00:50.421Z,9.43
2022-12-20T23:03:17.688Z,10.80
2022-12-20T23:05:58.924Z,10.33
2022-12-20T23:08:29.573Z,10.50
2022-12-20T23:11:16.246Z,11.75
2022-12-20T23:14:01.993Z,9.87
2022-12-20T23:16:29.703Z,10.33
2022-12-20T23:18:58.133Z,9.77
2022-12-20T23:21:44.236Z,10.17
2022-12-20T23:24:12.778Z,9.73
2022-12-20T23:26:40.533Z,9.07
2022-12-20T23:29:08.888Z,10.10
2022-12-20T23:31:36.427Z,10.20
2022-12-20T23:34:04.032Z,10.57
2022-12-20T23:36:33.432Z,10.87
2022-12-20T23:39:01.013Z,11.20
2022-12-20T23:41:28.522Z,11.57
2022-12-20T23:43:55.982Z,10.52
2022-12-20T23:46:23.833Z,10.43
2022-12-20T23:48:52.176Z,11.23
2022-12-20T23:51:20.109Z,11.13
2022-12-20T23:53:47.557Z,11.80
2022-12-20T23:56:18.176Z,10.40
2022-12-20T23:58:50.228Z,11.13
